Time;durP1;ratioP1;P1;durP2;ratioP2;P2;SDS_P1;SDS_P2;PMS_P1;PMS_P2;Temp;Humidity;BMP_temperature;BMP_pressure;BME280_temperature;BME280_humidity;BME280_pressure;Samples;Min_cycle;Max_cycle;Signal;HPM_P1;HPM_P2
2022/11/28 00:01:09;;;;;;;12.35;10.45;;;;;;;;;;5040525;28;20127;-71
2022/11/28 00:03:35;;;;;;;15.63;11.32;;;;;;;;;;5037906;28;20041;-70
2022/11/28 00:06:06;;;;;;;16.15;10.60;;;;;;;;;;5040037;28;20045;-71
2022/11/28 00:08:32;;;;;;;13.32;10.40;;;;;;;;;;5038778;28;20040;-73
2022/11/28 00:10:58;;;;;;;13.48;10.13;;;;;;;;;;5039491;28;20048;-71
2022/11/28 00:13:24;;;;;;;13.38;10.45;;;;;;;;;;5042608;28;20055;-71
2022/11/28 00:15:57;;;;;;;12.73;10.13;;;;;;;;;;5043467;28;20040;-71
2022/11/28 00:18:23;;;;;;;16.40;10.30;;;;;;;;;;5045057;28;20045;-70
2022/11/28 00:20:49;;;;;;;12.18;9.88;;;;;;;;;;5043605;28;20040;-70
2022/11/28 00:23:15;;;;;;;15.07;9.93;;;;;;;;;;5028008;28;20049;-70
2022/11/28 00:25:41;;;;;;;13.45;9.70;;;;;;;;;;5042218;28;20450;-70
2022/11/28 00:28:07;;;;;;;13.27;8.85;;;;;;;;;;5044780;28;20059;-70
2022/11/28 00:30:37;;;;;;;12.05;9.57;;;;;;;;;;5041789;28;20049;-71
2022/11/28 00:33:03;;;;;;;13.27;9.35;;;;;;;;;;5042930;28;20045;-72
2022/11/28 00:35:29;;;;;;;10.95;9.10;;;;;;;;;;5043649;28;20071;-70
2022/11/28 00:37:55;;;;;;;12.20;9.10;;;;;;;;;;5043026;28;20048;-72
2022/11/28 00:40:21;;;;;;;12.15;8.90;;;;;;;;;;5044172;28;20048;-69
2022/11/28 00:42:47;;;;;;;11.65;8.98;;;;;;;;;;5041077;28;20122;-70
2022/11/28 00:45:13;;;;;;;13.88;8.38;;;;;;;;;;5040878;28;20072;-71
2022/11/28 00:47:39;;;;;;;12.70;8.65;;;;;;;;;;5044567;28;20044;-72
2022/11/28 00:50:06;;;;;;;10.73;8.80;;;;;;;;;;5046528;28;20041;-72
2022/11/28 00:52:32;;;;;;;11.32;8.57;;;;;;;;;;5043569;28;20064;-70
2022/11/28 00:54:58;;;;;;;12.05;9.30;;;;;;;;;;5025419;28;20119;-72
2022/11/28 00:57:24;;;;;;;10.88;8.80;;;;;;;;;;5043841;28;20049;-69
2022/11/28 00:59:50;;;;;;;12.02;9.20;;;;;;;;;;5043599;28;20044;-72
2022/11/28 01:02:16;;;;;;;11.98;8.80;;;;;;;;;;5044027;28;20139;-72
2022/11/28 01:04:42;;;;;;;12.38;9.10;;;;;;;;;;5043941;28;20053;-72
2022/11/28 01:07:08;;;;;;;12.52;8.88;;;;;;;;;;5043746;28;20040;-68
2022/11/28 01:09:34;;;;;;;11.63;8.70;;;;;;;;;;5042928;28;22309;-72
2022/11/28 01:12:01;;;;;;;10.93;7.90;;;;;;;;;;5043957;28;20041;-71
2022/11/28 01:14:27;;;;;;;10.43;8.10;;;;;;;;;;5042850;28;20045;-71
2022/11/28 01:16:53;;;;;;;10.73;8.13;;;;;;;;;;5042560;28;20127;-72
2022/11/28 01:19:20;;;;;;;12.38;9.25;;;;;;;;;;5041938;28;20561;-70
2022/11/28 01:21:46;;;;;;;12.30;8.75;;;;;;;;;;5041915;28;20053;-71
2022/11/28 01:24:13;;;;;;;13.20;8.60;;;;;;;;;;5041676;28;20041;-70
2022/11/28 01:26:39;;;;;;;10.60;8.93;;;;;;;;;;5043646;28;20040;-72
2022/11/28 01:29:06;;;;;;;11.07;8.73;;;;;;;;;;5039783;28;20045;-71
2022/11/28 01:31:32;;;;;;;13.48;8.40;;;;;;;;;;5041381;28;20044;-72
2022/11/28 01:33:58;;;;;;;12.10;8.27;;;;;;;;;;5040675;28;20064;-72
2022/11/28 01:36:24;;;;;;;14.70;9.07;;;;;;;;;;5037725;28;20072;-71
2022/11/28 01:38:50;;;;;;;10.85;8.38;;;;;;;;;;5040912;28;20088;-72
2022/11/28 01:41:17;;;;;;;9.73;7.90;;;;;;;;;;5025973;28;20068;-68
2022/11/28 01:43:57;;;;;;;12.98;8.52;;;;;;;;;;5043371;28;20032;-69
2022/11/28 01:46:23;;;;;;;10.85;8.43;;;;;;;;;;5026713;28;20492;-72
2022/11/28 01:48:50;;;;;;;13.07;8.63;;;;;;;;;;5042325;28;20083;-70
2022/11/28 01:51:16;;;;;;;11.07;8.82;;;;;;;;;;5039239;28;20065;-69
2022/11/28 01:53:44;;;;;;;11.50;9.05;;;;;;;;;;5042664;28;20052;-72
2022/11/28 01:56:21;;;;;;;15.27;9.93;;;;;;;;;;5041966;28;20052;-68
2022/11/28 01:58:49;;;;;;;14.65;9.38;;;;;;;;;;5045722;28;20115;-71
2022/11/28 02:01:16;;;;;;;14.98;9.27;;;;;;;;;;5041663;28;20686;-73
2022/11/28 02:03:43;;;;;;;10.75;8.55;;;;;;;;;;5043753;28;20047;-71
2022/11/28 02:06:10;;;;;;;12.02;9.13;;;;;;;;;;5041633;28;20044;-71
2022/11/28 02:08:36;;;;;;;12.13;8.85;;;;;;;;;;5042654;28;20044;-70
2022/11/28 02:11:21;;;;;;;9.75;8.75;;;;;;;;;;5041404;28;20048;-73
2022/11/28 02:14:12;;;;;;;11.98;9.07;;;;;;;;;;5041780;28;21348;-70
2022/11/28 02:16:44;;;;;;;15.40;9.13;;;;;;;;;;5042728;28;20091;-72
2022/11/28 02:19:29;;;;;;;10.07;8.85;;;;;;;;;;5042396;28;20167;-71
2022/11/28 02:22:00;;;;;;;10.75;8.80;;;;;;;;;;5043421;28;20152;-73
2022/11/28 02:24:37;;;;;;;11.98;8.90;;;;;;;;;;5041061;28;20045;-71
2022/11/28 02:27:12;;;;;;;13.13;9.27;;;;;;;;;;5041410;28;20051;-72
2022/11/28 02:29:55;;;;;;;11.85;8.98;;;;;;;;;;5043099;28;20061;-71
2022/11/28 02:32:30;;;;;;;13.93;9.57;;;;;;;;;;5042479;28;20045;-72
2022/11/28 02:35:03;;;;;;;12.68;9.73;;;;;;;;;;5040792;28;20071;-72
2022/11/28 02:37:34;;;;;;;12.63;9.48;;;;;;;;;;5040824;28;21081;-72
2022/11/28 02:40:00;;;;;;;15.50;9.85;;;;;;;;;;5040891;28;20495;-73
2022/11/28 02:42:32;;;;;;;11.55;9.02;;;;;;;;;;5040715;28;20049;-71
2022/11/28 02:45:10;;;;;;;13.38;10.07;;;;;;;;;;5039914;28;20048;-72
2022/11/28 02:47:37;;;;;;;15.38;9.95;;;;;;;;;;5040784;28;20083;-70
2022/11/28 02:50:07;;;;;;;16.35;10.50;;;;;;;;;;5040579;28;20109;-71
2022/11/28 02:52:35;;;;;;;13.43;10.27;;;;;;;;;;5038694;28;20045;-71
2022/11/28 02:55:02;;;;;;;12.43;9.95;;;;;;;;;;5043591;28;20037;-72
2022/11/28 02:57:36;;;;;;;15.43;11.00;;;;;;;;;;5043603;28;20311;-71
2022/11/28 03:00:02;;;;;;;16.10;11.85;;;;;;;;;;5041340;28;20076;-71
2022/11/28 03:02:29;;;;;;;16.50;11.85;;;;;;;;;;5038662;28;20131;-71
2022/11/28 03:05:01;;;;;;;17.60;12.05;;;;;;;;;;5040047;28;20068;-73
2022/11/28 03:07:37;;;;;;;14.90;11.95;;;;;;;;;;5040343;28;20130;-72
2022/11/28 03:10:07;;;;;;;16.90;12.40;;;;;;;;;;5040582;28;20518;-72
2022/11/28 03:12:52;;;;;;;22.88;13.75;;;;;;;;;;5039402;28;20056;-72
2022/11/28 03:15:26;;;;;;;20.17;14.40;;;;;;;;;;5039365;28;20140;-71
2022/11/28 03:17:59;;;;;;;17.60;13.40;;;;;;;;;;5041311;28;20041;-72
2022/11/28 03:20:34;;;;;;;18.38;13.50;;;;;;;;;;5041210;28;20164;-71
2022/11/28 03:23:00;;;;;;;21.48;13.60;;;;;;;;;;5040746;28;20044;-72
2022/11/28 03:25:30;;;;;;;23.38;13.93;;;;;;;;;;5024027;28;20055;-71
2022/11/28 03:28:05;;;;;;;20.67;14.40;;;;;;;;;;5040781;28;20052;-71
2022/11/28 03:30:40;;;;;;;23.80;14.60;;;;;;;;;;5041947;28;20399;-70
2022/11/28 03:33:07;;;;;;;21.55;14.30;;;;;;;;;;5039755;28;20172;-71
2022/11/28 03:35:35;;;;;;;19.67;14.27;;;;;;;;;;5040817;28;20048;-71
2022/11/28 03:38:05;;;;;;;21.63;14.70;;;;;;;;;;5022482;28;20045;-74
2022/11/28 03:40:35;;;;;;;20.85;14.80;;;;;;;;;;5041996;28;20068;-71
2022/11/28 03:43:03;;;;;;;21.10;14.93;;;;;;;;;;5039909;28;20127;-71
2022/11/28 03:45:34;;;;;;;21.02;14.85;;;;;;;;;;5040892;28;20126;-71
2022/11/28 03:48:02;;;;;;;20.88;15.65;;;;;;;;;;5038844;28;20174;-72
2022/11/28 03:50:34;;;;;;;22.80;15.32;;;;;;;;;;5044938;28;20080;-72
2022/11/28 03:53:07;;;;;;;21.13;15.30;;;;;;;;;;5044790;28;20045;-71
2022/11/28 03:55:40;;;;;;;22.63;16.15;;;;;;;;;;5044841;28;20053;-72
2022/11/28 03:58:12;;;;;;;21.08;16.17;;;;;;;;;;5044998;28;20053;-71
2022/11/28 04:00:44;;;;;;;23.23;17.80;;;;;;;;;;5042658;28;20064;-70
2022/11/28 04:03:16;;;;;;;23.63;18.33;;;;;;;;;;5044474;28;20036;-71
2022/11/28 04:05:47;;;;;;;25.42;18.73;;;;;;;;;;5044771;28;20315;-73
2022/11/28 04:08:16;;;;;;;27.58;18.52;;;;;;;;;;5044221;28;20048;-71
2022/11/28 04:10:42;;;;;;;25.23;19.17;;;;;;;;;;5042251;28;20056;-71
2022/11/28 04:13:17;;;;;;;24.92;18.02;;;;;;;;;;5043878;28;20412;-70
2022/11/28 04:15:53;;;;;;;24.95;18.48;;;;;;;;;;5044296;28;20048;-71
2022/11/28 04:18:28;;;;;;;27.75;18.90;;;;;;;;;;5043356;28;20075;-72
2022/11/28 04:21:01;;;;;;;27.20;19.35;;;;;;;;;;5029496;28;20045;-72
2022/11/28 04:23:29;;;;;;;27.45;21.15;;;;;;;;;;5042311;28;20047;-71
2022/11/28 04:25:58;;;;;;;29.85;21.45;;;;;;;;;;5045010;28;20038;-72
2022/11/28 04:28:25;;;;;;;26.65;21.67;;;;;;;;;;5043411;28;20049;-73
2022/11/28 04:30:52;;;;;;;30.83;22.20;;;;;;;;;;5044443;28;20036;-72
2022/11/28 04:33:19;;;;;;;27.80;22.38;;;;;;;;;;5027215;28;20106;-71
2022/11/28 04:35:51;;;;;;;30.40;23.95;;;;;;;;;;5044330;28;20081;-70
2022/11/28 04:38:17;;;;;;;34.03;24.98;;;;;;;;;;5044358;28;20399;-72
2022/11/28 04:40:55;;;;;;;30.33;24.55;;;;;;;;;;5044068;28;20195;-70
2022/11/28 04:43:24;;;;;;;40.88;26.50;;;;;;;;;;5042484;28;20041;-70
2022/11/28 04:45:53;;;;;;;33.95;26.90;;;;;;;;;;5026399;28;20132;-72
2022/11/28 04:48:19;;;;;;;35.30;26.40;;;;;;;;;;5045510;28;20041;-71
2022/11/28 04:50:51;;;;;;;31.02;26.58;;;;;;;;;;5044171;28;20052;-72
2022/11/28 04:53:38;;;;;;;33.13;26.92;;;;;;;;;;5044709;28;20555;-70
2022/11/28 04:56:11;;;;;;;35.13;25.33;;;;;;;;;;5042535;28;20041;-71
2022/11/28 04:58:40;;;;;;;32.45;26.02;;;;;;;;;;5042281;28;20048;-71
2022/11/28 05:01:08;;;;;;;32.80;25.40;;;;;;;;;;5043577;28;20046;-72
2022/11/28 05:03:34;;;;;;;31.55;25.10;;;;;;;;;;5043215;28;20191;-71
2022/11/28 05:06:00;;;;;;;31.45;24.20;;;;;;;;;;5045263;28;20136;-72
2022/11/28 05:08:26;;;;;;;32.53;24.73;;;;;;;;;;5042525;28;20064;-72
2022/11/28 05:10:52;;;;;;;33.33;24.02;;;;;;;;;;5028344;28;20102;-72
2022/11/28 05:13:18;;;;;;;31.05;24.20;;;;;;;;;;5042837;28;20049;-72
2022/11/28 05:15:44;;;;;;;28.58;21.50;;;;;;;;;;5043221;28;20036;-72
2022/11/28 05:18:10;;;;;;;25.63;21.77;;;;;;;;;;5043963;28;20517;-72
2022/11/28 05:20:37;;;;;;;27.88;21.45;;;;;;;;;;5042548;28;20182;-72
2022/11/28 05:23:03;;;;;;;34.35;21.98;;;;;;;;;;5045998;28;20048;-72
2022/11/28 05:25:29;;;;;;;25.23;20.20;;;;;;;;;;5044007;28;20045;-72
2022/11/28 05:27:55;;;;;;;28.40;21.17;;;;;;;;;;5042646;28;20045;-72
2022/11/28 05:30:21;;;;;;;30.85;21.63;;;;;;;;;;5041792;28;20060;-72
2022/11/28 05:32:47;;;;;;;26.45;21.27;;;;;;;;;;5043493;28;20045;-72
2022/11/28 05:35:13;;;;;;;27.02;21.92;;;;;;;;;;5041232;28;20484;-71
2022/11/28 05:37:39;;;;;;;26.42;20.98;;;;;;;;;;5038454;28;20069;-71
2022/11/28 05:40:05;;;;;;;27.15;21.23;;;;;;;;;;5043831;28;20044;-71
2022/11/28 05:42:32;;;;;;;28.60;23.52;;;;;;;;;;5042999;28;20046;-71
2022/11/28 05:44:58;;;;;;;31.33;22.85;;;;;;;;;;5042309;28;20045;-71
2022/11/28 05:47:25;;;;;;;32.58;24.23;;;;;;;;;;5043951;28;20555;-71
2022/11/28 05:49:51;;;;;;;27.48;22.50;;;;;;;;;;5042145;28;20064;-71
2022/11/28 05:52:17;;;;;;;32.05;24.05;;;;;;;;;;5041813;28;20408;-71
2022/11/28 05:54:43;;;;;;;32.85;25.15;;;;;;;;;;5042750;28;20066;-70
2022/11/28 05:57:09;;;;;;;33.58;24.30;;;;;;;;;;5041414;28;20037;-71
2022/11/28 05:59:35;;;;;;;39.55;23.80;;;;;;;;;;5042837;28;20166;-69
2022/11/28 06:02:01;;;;;;;30.73;25.00;;;;;;;;;;5043948;28;20047;-70
2022/11/28 06:04:27;;;;;;;32.63;25.42;;;;;;;;;;5042156;28;20071;-71
2022/11/28 06:06:53;;;;;;;36.15;24.92;;;;;;;;;;5038721;28;20049;-70
2022/11/28 06:09:19;;;;;;;35.20;25.15;;;;;;;;;;5041473;28;20105;-71
2022/11/28 06:11:45;;;;;;;34.25;25.33;;;;;;;;;;5039250;28;20090;-72
2022/11/28 06:14:11;;;;;;;37.22;26.05;;;;;;;;;;5041857;28;20518;-72
2022/11/28 06:16:37;;;;;;;37.33;26.67;;;;;;;;;;5040104;28;20071;-69
2022/11/28 06:19:04;;;;;;;34.75;25.38;;;;;;;;;;5039033;28;20072;-71
2022/11/28 06:21:30;;;;;;;33.35;26.77;;;;;;;;;;5038056;28;20056;-70
2022/11/28 06:23:56;;;;;;;35.83;25.95;;;;;;;;;;5036890;28;20893;-72
2022/11/28 06:26:23;;;;;;;33.20;24.92;;;;;;;;;;5040351;28;20126;-72
2022/11/28 06:28:49;;;;;;;34.72;24.60;;;;;;;;;;5020920;28;20140;-72
2022/11/28 06:31:17;;;;;;;34.00;25.75;;;;;;;;;;5040287;28;20111;-72
2022/11/28 06:33:43;;;;;;;32.78;24.23;;;;;;;;;;5039531;28;20127;-72
2022/11/28 06:36:10;;;;;;;27.08;23.27;;;;;;;;;;5038769;28;20132;-72
2022/11/28 06:38:37;;;;;;;29.35;23.55;;;;;;;;;;5038930;28;20130;-71
2022/11/28 06:41:05;;;;;;;25.42;21.23;;;;;;;;;;5041512;28;20068;-72
2022/11/28 06:43:31;;;;;;;29.02;22.10;;;;;;;;;;5040307;28;20045;-71
2022/11/28 06:45:57;;;;;;;29.35;21.88;;;;;;;;;;5039673;28;20119;-73
2022/11/28 06:48:24;;;;;;;30.23;21.52;;;;;;;;;;5042595;28;20041;-72
2022/11/28 06:50:50;;;;;;;26.92;22.17;;;;;;;;;;5039438;28;20514;-69
2022/11/28 06:53:16;;;;;;;30.70;21.30;;;;;;;;;;5044534;28;20059;-72
2022/11/28 06:55:42;;;;;;;23.05;19.70;;;;;;;;;;5041971;28;20222;-72
2022/11/28 06:58:08;;;;;;;25.30;20.10;;;;;;;;;;5040807;28;20055;-72
2022/11/28 07:00:35;;;;;;;24.60;20.63;;;;;;;;;;5037202;28;20059;-70
2022/11/28 07:03:01;;;;;;;24.20;18.80;;;;;;;;;;5037623;28;20045;-70
2022/11/28 07:05:27;;;;;;;24.65;19.42;;;;;;;;;;5039765;28;20037;-70
2022/11/28 07:07:57;;;;;;;22.83;18.83;;;;;;;;;;5023463;28;20043;-71
2022/11/28 07:10:23;;;;;;;22.65;19.35;;;;;;;;;;5038764;28;20131;-70
2022/11/28 07:12:53;;;;;;;24.75;18.63;;;;;;;;;;5039288;28;20079;-71
2022/11/28 07:15:19;;;;;;;22.15;17.67;;;;;;;;;;5038709;28;20135;-71
2022/11/28 07:17:45;;;;;;;22.58;18.00;;;;;;;;;;5040831;28;20110;-71
2022/11/28 07:20:11;;;;;;;23.17;17.67;;;;;;;;;;5036900;28;20487;-70
2022/11/28 07:22:37;;;;;;;20.38;17.10;;;;;;;;;;5037415;28;20128;-72
2022/11/28 07:25:03;;;;;;;20.27;16.88;;;;;;;;;;5039426;28;20094;-72
2022/11/28 07:27:29;;;;;;;20.30;16.52;;;;;;;;;;5039359;28;20043;-72
2022/11/28 07:29:55;;;;;;;23.55;16.92;;;;;;;;;;5038140;28;20045;-70
2022/11/28 07:32:21;;;;;;;19.73;17.45;;;;;;;;;;5039786;28;20056;-72
2022/11/28 07:34:47;;;;;;;20.10;17.48;;;;;;;;;;5039277;28;20052;-72
2022/11/28 07:37:14;;;;;;;20.67;16.23;;;;;;;;;;5040376;28;20455;-72
2022/11/28 07:39:43;;;;;;;20.75;16.10;;;;;;;;;;5039546;28;20118;-72
2022/11/28 07:42:09;;;;;;;18.73;15.60;;;;;;;;;;5041896;28;20048;-72
2022/11/28 07:44:35;;;;;;;19.00;15.38;;;;;;;;;;5039459;28;20048;-71
2022/11/28 07:47:01;;;;;;;17.98;15.73;;;;;;;;;;5039842;28;20045;-71
2022/11/28 07:49:27;;;;;;;21.27;16.13;;;;;;;;;;5043818;28;20046;-71
2022/11/28 07:51:53;;;;;;;17.92;15.02;;;;;;;;;;5046222;28;20049;-70
2022/11/28 07:54:19;;;;;;;18.77;15.18;;;;;;;;;;5045391;28;20061;-73
2022/11/28 07:56:45;;;;;;;19.40;15.60;;;;;;;;;;5044123;28;20080;-71
2022/11/28 07:59:11;;;;;;;17.73;15.00;;;;;;;;;;5044248;28;20530;-71
2022/11/28 08:01:37;;;;;;;17.90;15.23;;;;;;;;;;5043026;28;20098;-71
2022/11/28 08:04:04;;;;;;;19.73;15.25;;;;;;;;;;5044190;28;20365;-71
2022/11/28 08:06:30;;;;;;;16.42;14.65;;;;;;;;;;5043490;28;20092;-70
2022/11/28 08:08:57;;;;;;;16.83;15.00;;;;;;;;;;5042829;28;20047;-71
2022/11/28 08:11:24;;;;;;;17.50;14.45;;;;;;;;;;5043310;28;20045;-70
2022/11/28 08:13:50;;;;;;;17.52;14.00;;;;;;;;;;5043602;28;20053;-70
2022/11/28 08:16:16;;;;;;;18.20;14.68;;;;;;;;;;5041932;28;20072;-71
2022/11/28 08:18:42;;;;;;;16.80;14.60;;;;;;;;;;5043626;28;20092;-71
2022/11/28 08:21:10;;;;;;;17.58;14.57;;;;;;;;;;5041860;28;20045;-70
2022/11/28 08:23:36;;;;;;;17.77;14.95;;;;;;;;;;5043688;28;20132;-71
2022/11/28 08:26:03;;;;;;;17.75;14.80;;;;;;;;;;5044615;28;20052;-73
2022/11/28 08:28:30;;;;;;;17.85;14.65;;;;;;;;;;5041151;28;20175;-70
2022/11/28 08:30:56;;;;;;;17.38;14.35;;;;;;;;;;5041609;28;20182;-71
2022/11/28 08:33:23;;;;;;;19.42;15.00;;;;;;;;;;5041400;28;20435;-72
2022/11/28 08:35:49;;;;;;;19.05;14.95;;;;;;;;;;5043197;28;20056;-69
2022/11/28 08:38:16;;;;;;;17.65;14.40;;;;;;;;;;5041365;28;20278;-70
2022/11/28 08:40:41;;;;;;;17.63;14.43;;;;;;;;;;5043581;28;20479;-69
2022/11/28 08:43:07;;;;;;;20.58;14.80;;;;;;;;;;5044317;28;20049;-70
2022/11/28 08:45:37;;;;;;;17.38;15.00;;;;;;;;;;5043086;28;20041;-70
2022/11/28 08:48:03;;;;;;;17.58;13.88;;;;;;;;;;5042846;28;20040;-71
2022/11/28 08:50:29;;;;;;;18.25;13.88;;;;;;;;;;5043796;28;20040;-70
2022/11/28 08:52:55;;;;;;;16.52;13.15;;;;;;;;;;5041438;28;20374;-69
2022/11/28 08:55:22;;;;;;;16.08;13.18;;;;;;;;;;5044317;28;20123;-72
2022/11/28 08:57:48;;;;;;;16.70;14.10;;;;;;;;;;5045765;28;20420;-70
2022/11/28 09:00:14;;;;;;;16.35;13.90;;;;;;;;;;5047263;28;20083;-69
2022/11/28 09:02:40;;;;;;;16.95;13.48;;;;;;;;;;5040671;28;20072;-72
2022/11/28 09:05:06;;;;;;;16.38;14.13;;;;;;;;;;5039728;28;20135;-70
2022/11/28 09:07:32;;;;;;;18.33;14.60;;;;;;;;;;5043346;28;20048;-70
2022/11/28 09:09:59;;;;;;;16.20;13.98;;;;;;;;;;5027134;28;20045;-71
2022/11/28 09:12:25;;;;;;;16.50;14.25;;;;;;;;;;5044019;28;20052;-71
2022/11/28 09:14:51;;;;;;;14.52;12.93;;;;;;;;;;5041944;28;20041;-74
2022/11/28 09:17:17;;;;;;;17.35;14.77;;;;;;;;;;5042629;28;20041;-73
2022/11/28 09:19:43;;;;;;;15.57;13.57;;;;;;;;;;5039256;28;20052;-72
2022/11/28 09:22:09;;;;;;;21.35;13.68;;;;;;;;;;5042779;28;20135;-71
2022/11/28 09:24:35;;;;;;;18.20;13.98;;;;;;;;;;5041499;28;20838;-74
2022/11/28 09:27:01;;;;;;;16.88;14.13;;;;;;;;;;5041050;28;20049;-71
2022/11/28 09:29:28;;;;;;;18.77;14.30;;;;;;;;;;5041759;28;20072;-74
2022/11/28 09:31:54;;;;;;;16.75;14.50;;;;;;;;;;5041769;28;20100;-73
2022/11/28 09:34:20;;;;;;;17.00;14.40;;;;;;;;;;5043578;28;20758;-74
2022/11/28 09:36:47;;;;;;;17.35;14.50;;;;;;;;;;5040372;28;20051;-73
2022/11/28 09:39:13;;;;;;;16.55;14.32;;;;;;;;;;5042978;28;20064;-71
2022/11/28 09:41:45;;;;;;;18.17;14.82;;;;;;;;;;5039583;28;20072;-71
2022/11/28 09:44:18;;;;;;;16.23;14.07;;;;;;;;;;5039232;28;20173;-74
2022/11/28 09:46:45;;;;;;;16.92;13.90;;;;;;;;;;5043047;28;20040;-73
2022/11/28 09:49:21;;;;;;;15.75;13.77;;;;;;;;;;5042073;28;20037;-72
2022/11/28 09:51:53;;;;;;;18.08;14.13;;;;;;;;;;5038864;28;20089;-71
2022/11/28 09:54:22;;;;;;;18.50;14.05;;;;;;;;;;5038234;28;20080;-71
2022/11/28 09:56:48;;;;;;;16.85;14.75;;;;;;;;;;5038656;28;20431;-71
2022/11/28 09:59:25;;;;;;;16.58;14.02;;;;;;;;;;5038831;28;20056;-73
2022/11/28 10:01:54;;;;;;;17.58;14.65;;;;;;;;;;5041187;28;20055;-75
2022/11/28 10:04:39;;;;;;;16.92;14.60;;;;;;;;;;5041380;28;20130;-75
2022/11/28 10:07:05;;;;;;;19.02;14.50;;;;;;;;;;5043435;28;20086;-73
2022/11/28 10:09:46;;;;;;;18.27;14.50;;;;;;;;;;5043245;28;20037;-72
2022/11/28 10:12:24;;;;;;;19.13;14.35;;;;;;;;;;5044129;28;20064;-72
2022/11/28 10:15:09;;;;;;;17.05;14.38;;;;;;;;;;5043772;28;20131;-72
2022/11/28 10:17:48;;;;;;;22.13;15.07;;;;;;;;;;5042465;28;20060;-74
2022/11/28 10:20:23;;;;;;;17.70;14.23;;;;;;;;;;5041657;28;20045;-73
2022/11/28 10:22:55;;;;;;;15.98;13.48;;;;;;;;;;5045732;28;20080;-75
2022/11/28 10:25:41;;;;;;;16.65;13.40;;;;;;;;;;5057290;28;20400;-73
2022/11/28 10:28:14;;;;;;;17.52;14.43;;;;;;;;;;5044069;28;20053;-74
2022/11/28 10:30:42;;;;;;;15.55;12.18;;;;;;;;;;5044317;28;20059;-72
2022/11/28 10:33:33;;;;;;;14.90;13.13;;;;;;;;;;5049335;28;20076;-72
2022/11/28 10:36:00;;;;;;;13.45;12.02;;;;;;;;;;5037689;28;20045;-73
2022/11/28 10:38:27;;;;;;;15.80;12.88;;;;;;;;;;5038932;28;20049;-75
2022/11/28 10:41:02;;;;;;;14.20;11.75;;;;;;;;;;5039520;28;20044;-74
2022/11/28 10:43:34;;;;;;;13.70;12.30;;;;;;;;;;5040609;28;20499;-75
2022/11/28 10:46:00;;;;;;;15.18;11.95;;;;;;;;;;5043488;28;20043;-74
2022/11/28 10:48:26;;;;;;;13.88;12.20;;;;;;;;;;5045916;28;20036;-73
2022/11/28 10:51:07;;;;;;;13.38;11.98;;;;;;;;;;5041474;28;20059;-74
2022/11/28 10:53:52;;;;;;;12.70;11.27;;;;;;;;;;5037997;28;20064;-75
2022/11/28 10:56:30;;;;;;;12.27;10.98;;;;;;;;;;5043116;28;20049;-73
2022/11/28 10:59:05;;;;;;;13.13;11.40;;;;;;;;;;5044654;28;20147;-74
2022/11/28 11:01:33;;;;;;;13.70;11.18;;;;;;;;;;5042120;28;20647;-74
2022/11/28 11:03:59;;;;;;;12.05;10.75;;;;;;;;;;5039782;28;20055;-75
2022/11/28 11:06:26;;;;;;;14.70;11.68;;;;;;;;;;5039664;28;20045;-76
2022/11/28 11:08:52;;;;;;;11.73;10.60;;;;;;;;;;5041481;28;20065;-76
2022/11/28 11:11:23;;;;;;;11.93;10.73;;;;;;;;;;5040586;28;20055;-74
2022/11/28 11:13:59;;;;;;;11.93;10.70;;;;;;;;;;5036077;28;20072;-76
2022/11/28 11:16:25;;;;;;;13.98;10.55;;;;;;;;;;5038460;28;20041;-74
2022/11/28 11:18:53;;;;;;;11.93;10.73;;;;;;;;;;5039411;28;20055;-73
2022/11/28 11:21:21;;;;;;;12.05;10.80;;;;;;;;;;5036827;28;20041;-75
2022/11/28 11:23:48;;;;;;;12.93;11.35;;;;;;;;;;5026196;28;20527;-73
2022/11/28 11:26:43;;;;;;;13.88;10.60;;;;;;;;;;5042592;28;20044;-78
2022/11/28 11:29:23;;;;;;;12.32;10.65;;;;;;;;;;5028143;28;20111;-75
2022/11/28 11:31:52;;;;;;;11.60;10.40;;;;;;;;;;5044052;28;20050;-74
2022/11/28 11:34:20;;;;;;;11.13;10.02;;;;;;;;;;5044654;28;20044;-77
2022/11/28 11:36:46;;;;;;;12.48;10.77;;;;;;;;;;5022858;28;20050;-76
2022/11/28 11:39:11;;;;;;;11.80;10.48;;;;;;;;;;5042025;28;20055;-76
2022/11/28 11:41:39;;;;;;;12.02;10.82;;;;;;;;;;5036399;28;20041;-76
2022/11/28 11:44:14;;;;;;;12.45;11.15;;;;;;;;;;5037843;28;20037;-73
2022/11/28 11:46:55;;;;;;;11.57;10.48;;;;;;;;;;5037354;28;20069;-76
2022/11/28 11:49:32;;;;;;;13.98;11.52;;;;;;;;;;5037555;28;20059;-77
2022/11/28 11:51:59;;;;;;;13.38;10.45;;;;;;;;;;5039335;28;20045;-74
2022/11/28 11:54:25;;;;;;;11.25;10.10;;;;;;;;;;5038063;28;20045;-76
2022/11/28 11:56:51;;;;;;;12.57;11.18;;;;;;;;;;5041143;28;20765;-74
2022/11/28 11:59:17;;;;;;;11.10;9.90;;;;;;;;;;5043512;28;20049;-74
2022/11/28 12:01:45;;;;;;;13.45;11.05;;;;;;;;;;5039931;28;20147;-74
2022/11/28 12:04:17;;;;;;;12.55;11.25;;;;;;;;;;5039336;28;20079;-74
2022/11/28 12:06:46;;;;;;;14.23;10.82;;;;;;;;;;5039820;28;20064;-75
2022/11/28 12:09:20;;;;;;;11.02;9.85;;;;;;;;;;5043846;28;20060;-75
2022/11/28 12:11:50;;;;;;;11.75;10.18;;;;;;;;;;5043632;28;20048;-75
2022/11/28 12:14:27;;;;;;;12.18;10.05;;;;;;;;;;5025567;28;20048;-74
2022/11/28 12:17:16;;;;;;;13.18;10.40;;;;;;;;;;5040781;28;20402;-74
2022/11/28 12:20:00;;;;;;;12.70;10.05;;;;;;;;;;5042165;28;20567;-76
2022/11/28 12:22:26;;;;;;;10.93;9.82;;;;;;;;;;5042933;28;20408;-76
2022/11/28 12:25:03;;;;;;;11.52;10.32;;;;;;;;;;5041148;28;20079;-73
2022/11/28 12:27:50;;;;;;;12.25;10.60;;;;;;;;;;5044632;28;20403;-76
2022/11/28 12:30:35;;;;;;;12.60;11.30;;;;;;;;;;5045689;28;20499;-76
2022/11/28 12:33:20;;;;;;;12.02;10.82;;;;;;;;;;5049798;28;20438;-73
2022/11/28 12:36:04;;;;;;;11.02;9.93;;;;;;;;;;5043856;28;20076;-74
2022/11/28 12:38:53;;;;;;;13.10;10.95;;;;;;;;;;5027503;28;20099;-76
2022/11/28 12:41:37;;;;;;;13.43;11.05;;;;;;;;;;5045118;28;20049;-74
2022/11/28 12:44:06;;;;;;;13.40;11.20;;;;;;;;;;5045897;28;20691;-74
2022/11/28 12:46:32;;;;;;;12.43;11.23;;;;;;;;;;5045899;28;20041;-73
2022/11/28 12:49:13;;;;;;;15.38;11.32;;;;;;;;;;5045194;28;20061;-73
2022/11/28 12:51:39;;;;;;;13.88;11.20;;;;;;;;;;5048351;28;20180;-77
2022/11/28 12:54:10;;;;;;;13.73;11.38;;;;;;;;;;5047564;28;20135;-74
2022/11/28 12:56:42;;;;;;;12.68;11.38;;;;;;;;;;5047522;28;20060;-76
2022/11/28 12:59:18;;;;;;;13.73;12.13;;;;;;;;;;5041410;28;20072;-76
2022/11/28 13:01:47;;;;;;;13.20;11.70;;;;;;;;;;5028597;28;20052;-75
2022/11/28 13:04:22;;;;;;;15.40;13.13;;;;;;;;;;5038727;28;20040;-76
2022/11/28 13:07:04;;;;;;;15.65;12.75;;;;;;;;;;5040048;28;20034;-74
2022/11/28 13:10:00;;;;;;;15.70;12.68;;;;;;;;;;5044767;28;20037;-76
2022/11/28 13:12:29;;;;;;;14.15;12.40;;;;;;;;;;5030263;28;20132;-76
2022/11/28 13:15:22;;;;;;;16.88;12.88;;;;;;;;;;5042970;28;20055;-75
2022/11/28 13:17:57;;;;;;;14.40;12.90;;;;;;;;;;5041728;28;20473;-74
2022/11/28 13:20:28;;;;;;;13.88;12.38;;;;;;;;;;5045592;28;20503;-75
2022/11/28 13:23:01;;;;;;;16.08;12.48;;;;;;;;;;5040404;28;20041;-76
2022/11/28 13:25:37;;;;;;;15.40;13.05;;;;;;;;;;5046198;28;20060;-74
2022/11/28 13:28:10;;;;;;;16.75;12.95;;;;;;;;;;5030092;28;20450;-73
2022/11/28 13:30:40;;;;;;;15.50;13.52;;;;;;;;;;5033283;28;20049;-74
2022/11/28 13:33:11;;;;;;;14.90;13.15;;;;;;;;;;5044372;28;20056;-73
2022/11/28 13:35:39;;;;;;;16.08;13.05;;;;;;;;;;5043922;28;20060;-75
2022/11/28 13:38:09;;;;;;;15.02;13.43;;;;;;;;;;5045825;28;20568;-74
2022/11/28 13:40:35;;;;;;;14.02;12.52;;;;;;;;;;5040961;28;20423;-75
2022/11/28 13:43:07;;;;;;;15.93;14.05;;;;;;;;;;5036509;28;20119;-76
2022/11/28 13:45:36;;;;;;;16.05;13.48;;;;;;;;;;5042171;28;20040;-77
2022/11/28 13:48:21;;;;;;;16.75;13.07;;;;;;;;;;5024025;28;20041;-76
2022/11/28 13:50:58;;;;;;;17.95;13.98;;;;;;;;;;5042137;28;20049;-77
2022/11/28 13:53:24;;;;;;;17.75;14.60;;;;;;;;;;5044524;28;20715;-77
2022/11/28 13:55:52;;;;;;;16.75;14.48;;;;;;;;;;5044210;28;20139;-76
2022/11/28 13:58:36;;;;;;;17.50;14.30;;;;;;;;;;5048288;28;20045;-75
2022/11/28 14:01:02;;;;;;;16.27;14.25;;;;;;;;;;5030264;28;20416;-74
2022/11/28 14:03:30;;;;;;;17.42;14.73;;;;;;;;;;5049177;28;20044;-77
2022/11/28 14:05:57;;;;;;;18.38;14.23;;;;;;;;;;5045183;28;20044;-75
2022/11/28 14:08:28;;;;;;;19.73;14.25;;;;;;;;;;5026150;28;20041;-74
2022/11/28 14:11:10;;;;;;;20.20;15.43;;;;;;;;;;5048717;28;20496;-77
2022/11/28 14:13:55;;;;;;;17.40;14.52;;;;;;;;;;5051438;28;20056;-77
2022/11/28 14:16:25;;;;;;;20.17;14.50;;;;;;;;;;5045326;28;20073;-74
2022/11/28 14:18:54;;;;;;;19.45;14.38;;;;;;;;;;5047373;28;20491;-76
2022/11/28 14:21:25;;;;;;;16.98;14.38;;;;;;;;;;5050065;28;20056;-74
2022/11/28 14:24:00;;;;;;;17.98;15.27;;;;;;;;;;5042195;28;20037;-75
2022/11/28 14:26:30;;;;;;;17.75;14.75;;;;;;;;;;5042559;28;20079;-77
2022/11/28 14:28:56;;;;;;;21.50;15.70;;;;;;;;;;5035456;28;20124;-77
2022/11/28 14:31:25;;;;;;;39.05;16.77;;;;;;;;;;5039107;28;20041;-77
2022/11/28 14:33:56;;;;;;;30.10;16.38;;;;;;;;;;5019274;28;20045;-77